createdAt,value
2022-12-18T00:00:11.544Z,100
2022-12-18T00:01:11.537Z,100
2022-12-18T00:02:11.577Z,100
2022-12-18T00:03:11.429Z,100
2022-12-18T00:04:11.654Z,100
2022-12-18T00:05:11.764Z,100
2022-12-18T00:06:11.437Z,100
2022-12-18T00:07:11.458Z,100
2022-12-18T00:08:11.401Z,100
2022-12-18T00:09:11.227Z,100
2022-12-18T00:10:10.930Z,100
2022-12-18T00:11:10.963Z,100
2022-12-18T00:13:11.624Z,100
2022-12-18T00:14:11.494Z,100
2022-12-18T00:15:11.615Z,100
2022-12-18T00:16:11.160Z,100
2022-12-18T00:17:11.789Z,100
2022-12-18T00:18:13.795Z,100
2022-12-18T00:19:11.008Z,100
2022-12-18T00:20:13.346Z,100
2022-12-18T00:21:11.923Z,100
2022-12-18T00:22:11.009Z,100
2022-12-18T00:23:11.494Z,100
2022-12-18T00:24:11.443Z,100
2022-12-18T00:25:11.693Z,100
2022-12-18T00:26:11.475Z,100
2022-12-18T00:27:10.916Z,100
2022-12-18T00:28:11.272Z,100
2022-12-18T00:29:10.897Z,100
2022-12-18T00:30:11.387Z,100
2022-12-18T00:31:11.347Z,100
2022-12-18T00:32:11.405Z,100
2022-12-18T00:33:12.255Z,100
2022-12-18T00:34:11.990Z,100
2022-12-18T00:35:11.435Z,100
2022-12-18T00:36:11.194Z,100
2022-12-18T00:37:13.411Z,100
2022-12-18T00:38:10.360Z,100
2022-12-18T00:39:11.567Z,100
2022-12-18T00:40:11.150Z,100
2022-12-18T00:41:12.020Z,100
2022-12-18T00:42:11.287Z,100
2022-12-18T00:43:11.507Z,100
2022-12-18T00:44:11.363Z,100
2022-12-18T00:45:13.229Z,100
2022-12-18T00:46:12.002Z,100
2022-12-18T00:47:11.228Z,100
2022-12-18T00:48:11.559Z,100
2022-12-18T00:49:11.804Z,100
2022-12-18T00:50:11.853Z,100
2022-12-18T00:51:11.209Z,100
2022-12-18T00:52:11.249Z,100
2022-12-18T00:53:11.840Z,100
2022-12-18T00:54:11.947Z,100
2022-12-18T00:55:11.824Z,100
2022-12-18T00:56:11.121Z,100
2022-12-18T00:57:11.336Z,100
2022-12-18T00:58:12.256Z,100
2022-12-18T00:59:11.031Z,100
2022-12-18T01:00:11.797Z,100
2022-12-18T01:01:10.817Z,100
2022-12-18T01:02:11.040Z,100
2022-12-18T01:03:12.039Z,100
2022-12-18T01:04:11.418Z,100
2022-12-18T01:05:11.373Z,100
2022-12-18T01:06:11.374Z,100
2022-12-18T01:07:11.076Z,100
2022-12-18T01:08:11.453Z,100
2022-12-18T01:09:11.579Z,100
2022-12-18T01:10:11.398Z,100
2022-12-18T01:11:11.283Z,100
2022-12-18T01:12:11.335Z,100
2022-12-18T01:13:11.740Z,100
2022-12-18T01:14:11.318Z,100
2022-12-18T01:15:11.638Z,100
2022-12-18T01:16:11.523Z,100
2022-12-18T01:17:11.206Z,100
2022-12-18T01:18:11.650Z,100
2022-12-18T01:19:10.906Z,100
2022-12-18T01:20:11.105Z,100
2022-12-18T01:21:11.109Z,100
2022-12-18T01:22:11.016Z,100
2022-12-18T01:23:10.491Z,100
2022-12-18T01:24:10.913Z,100
2022-12-18T01:25:11.692Z,100
2022-12-18T01:26:11.214Z,100
2022-12-18T01:27:10.873Z,100
2022-12-18T01:28:10.877Z,100
2022-12-18T01:29:11.588Z,100
2022-12-18T01:30:11.570Z,100
2022-12-18T01:31:11.926Z,100
2022-12-18T01:32:11.461Z,100
2022-12-18T01:33:11.160Z,100
2022-12-18T01:34:11.314Z,100
2022-12-18T01:35:11.160Z,100
2022-12-18T01:36:10.879Z,100
2022-12-18T01:37:11.207Z,100
2022-12-18T01:38:12.473Z,100
2022-12-18T01:39:11.483Z,100
2022-12-18T01:40:11.145Z,100
2022-12-18T01:41:11.717Z,100
2022-12-18T01:42:12.384Z,100
2022-12-18T01:43:11.424Z,100
2022-12-18T01:44:10.878Z,100
2022-12-18T01:45:12.290Z,100
2022-12-18T01:46:12.036Z,100
2022-12-18T01:47:11.705Z,100
2022-12-18T01:48:12.071Z,100
2022-12-18T01:49:11.863Z,100
2022-12-18T01:50:11.042Z,100
2022-12-18T01:51:11.667Z,100
2022-12-18T01:52:12.702Z,100
2022-12-18T01:53:11.317Z,100
2022-12-18T01:54:11.690Z,100
2022-12-18T01:55:11.089Z,100
2022-12-18T01:56:11.657Z,100
2022-12-18T01:57:11.839Z,100
2022-12-18T01:58:11.049Z,100
2022-12-18T01:59:11.450Z,100
2022-12-18T02:00:12.469Z,100
2022-12-18T02:01:11.386Z,100
2022-12-18T02:02:11.804Z,100
2022-12-18T02:03:10.964Z,100
2022-12-18T02:04:11.567Z,100
2022-12-18T02:05:11.589Z,100
2022-12-18T02:06:10.948Z,100
2022-12-18T02:07:12.115Z,100
2022-12-18T02:08:09.870Z,100
2022-12-18T02:09:10.879Z,100
2022-12-18T02:10:11.301Z,100
2022-12-18T02:11:11.972Z,100
2022-12-18T02:12:12.376Z,100
2022-12-18T02:13:12.182Z,100
2022-12-18T02:14:11.049Z,100
2022-12-18T02:15:11.454Z,100
2022-12-18T02:16:11.623Z,100
2022-12-18T02:17:11.850Z,100
2022-12-18T02:18:10.959Z,100
2022-12-18T02:19:11.497Z,100
2022-12-18T02:20:11.393Z,100
2022-12-18T02:21:11.461Z,100
2022-12-18T02:22:11.725Z,100
2022-12-18T02:23:10.955Z,100
2022-12-18T02:24:10.914Z,100
2022-12-18T02:25:10.901Z,100
2022-12-18T02:26:11.489Z,100
2022-12-18T02:27:10.890Z,100
2022-12-18T02:28:11.480Z,100
2022-12-18T02:29:12.140Z,100
2022-12-18T02:30:11.514Z,100
2022-12-18T02:31:11.474Z,100
2022-12-18T02:32:11.717Z,100
2022-12-18T02:33:12.018Z,100
2022-12-18T02:34:11.774Z,100
2022-12-18T02:35:11.354Z,100
2022-12-18T02:36:11.237Z,100
2022-12-18T02:37:11.920Z,100
2022-12-18T02:38:11.585Z,100
2022-12-18T02:39:11.874Z,100
2022-12-18T02:40:11.429Z,100
2022-12-18T02:41:11.184Z,100
2022-12-18T02:42:12.014Z,100
2022-12-18T02:43:11.278Z,100
2022-12-18T02:44:11.240Z,100
2022-12-18T02:45:11.579Z,100
2022-12-18T02:46:11.533Z,100
2022-12-18T02:47:10.883Z,100
2022-12-18T02:48:12.243Z,100
2022-12-18T02:49:11.382Z,100
2022-12-18T02:50:11.075Z,100
2022-12-18T02:51:11.293Z,100
2022-12-18T02:52:11.556Z,100
2022-12-18T02:53:10.357Z,100
2022-12-18T02:54:11.651Z,100
2022-12-18T02:55:13.101Z,100
2022-12-18T02:56:11.384Z,100
2022-12-18T02:57:10.855Z,100
2022-12-18T02:58:11.615Z,100
2022-12-18T02:59:11.725Z,100
2022-12-18T03:00:10.921Z,100
2022-12-18T03:01:10.928Z,100
2022-12-18T03:02:11.001Z,100
2022-12-18T03:03:11.140Z,100
2022-12-18T03:04:11.518Z,100
2022-12-18T03:05:11.088Z,100
2022-12-18T03:06:10.898Z,100
2022-12-18T03:07:11.036Z,100
2022-12-18T03:08:10.954Z,100
2022-12-18T03:09:11.016Z,100
2022-12-18T03:10:11.332Z,100
2022-12-18T03:11:10.847Z,100
2022-12-18T03:12:10.876Z,100
2022-12-18T03:13:11.514Z,100
2022-12-18T03:14:12.593Z,100
2022-12-18T03:15:16.016Z,100
2022-12-18T03:16:11.603Z,100
2022-12-18T03:17:12.014Z,100
2022-12-18T03:18:11.617Z,100
2022-12-18T03:19:11.584Z,100
2022-12-18T03:20:11.845Z,100
2022-12-18T03:21:10.856Z,100
2022-12-18T03:22:10.951Z,100
2022-12-18T03:23:11.986Z,100
2022-12-18T03:24:11.678Z,100
2022-12-18T03:25:11.748Z,100
2022-12-18T03:26:11.338Z,100
2022-12-18T03:27:11.552Z,100
2022-12-18T03:28:10.851Z,100
2022-12-18T03:29:10.949Z,100
2022-12-18T03:30:11.992Z,100
2022-12-18T03:31:12.161Z,100
2022-12-18T03:32:12.018Z,100
2022-12-18T03:33:11.205Z,100
2022-12-18T03:34:12.019Z,100
2022-12-18T03:35:10.891Z,100
2022-12-18T03:36:10.845Z,100
2022-12-18T03:37:12.156Z,100
2022-12-18T03:38:10.873Z,100
2022-12-18T03:39:11.124Z,100
2022-12-18T03:40:13.215Z,100
2022-12-18T03:41:12.160Z,100
2022-12-18T03:42:10.861Z,100
2022-12-18T03:43:10.863Z,100
2022-12-18T03:44:11.368Z,100
2022-12-18T03:45:11.524Z,100
2022-12-18T03:46:11.568Z,100
2022-12-18T03:47:10.866Z,100
2022-12-18T03:48:11.431Z,100
2022-12-18T03:49:10.902Z,100
2022-12-18T03:50:12.863Z,100
2022-12-18T03:51:11.549Z,100
2022-12-18T03:52:12.048Z,100
2022-12-18T03:53:13.401Z,100
2022-12-18T03:54:11.131Z,100
2022-12-18T03:55:11.810Z,100
2022-12-18T03:56:10.901Z,100
2022-12-18T03:57:11.854Z,100
2022-12-18T03:58:10.859Z,100
2022-12-18T03:59:12.367Z,100
2022-12-18T04:01:11.030Z,100
2022-12-18T04:02:11.310Z,100
2022-12-18T04:03:11.025Z,100
2022-12-18T04:04:11.528Z,100
2022-12-18T04:05:11.901Z,100
2022-12-18T04:06:11.116Z,100
2022-12-18T04:07:11.164Z,100
2022-12-18T04:08:12.146Z,100
2022-12-18T04:09:12.122Z,100
2022-12-18T04:10:10.972Z,100
2022-12-18T04:11:11.467Z,100
2022-12-18T04:12:11.870Z,100
2022-12-18T04:13:10.839Z,100
2022-12-18T04:14:16.074Z,100
2022-12-18T04:15:12.138Z,100
2022-12-18T04:16:11.398Z,100
2022-12-18T04:17:10.843Z,100
2022-12-18T04:18:11.255Z,100
2022-12-18T04:19:11.225Z,100
2022-12-18T04:20:11.111Z,100
2022-12-18T04:21:11.355Z,100
2022-12-18T04:22:11.397Z,100
2022-12-18T04:23:10.841Z,100
2022-12-18T04:24:11.061Z,100
2022-12-18T04:25:12.536Z,100
2022-12-18T04:26:11.786Z,100
2022-12-18T04:27:11.147Z,100
2022-12-18T04:28:10.925Z,100
2022-12-18T04:29:10.464Z,100
2022-12-18T04:30:12.149Z,100
2022-12-18T04:31:12.246Z,100
2022-12-18T04:32:10.969Z,100
2022-12-18T04:33:11.713Z,100
2022-12-18T04:34:10.905Z,100
2022-12-18T04:35:11.473Z,100
2022-12-18T04:36:11.517Z,100
2022-12-18T04:37:11.318Z,100
2022-12-18T04:38:12.126Z,100
2022-12-18T04:39:11.516Z,100
2022-12-18T04:40:11.145Z,100
2022-12-18T04:41:11.805Z,100
2022-12-18T04:42:10.879Z,100
2022-12-18T04:43:11.880Z,100
2022-12-18T04:44:11.595Z,100
2022-12-18T04:45:11.425Z,100
2022-12-18T04:46:10.883Z,100
2022-12-18T04:47:11.166Z,100
2022-12-18T04:48:11.584Z,100
2022-12-18T04:49:10.832Z,100
2022-12-18T04:50:10.847Z,100
2022-12-18T04:51:11.929Z,100
2022-12-18T04:52:13.113Z,100
2022-12-18T04:53:12.040Z,100
2022-12-18T04:54:11.005Z,100
2022-12-18T04:55:12.268Z,100
2022-12-18T04:56:11.863Z,100
2022-12-18T04:57:11.348Z,100
2022-12-18T04:58:12.477Z,100
2022-12-18T04:59:11.966Z,100
2022-12-18T05:00:10.923Z,100
2022-12-18T05:01:11.302Z,100
2022-12-18T05:02:11.425Z,100
2022-12-18T05:03:11.643Z,100
2022-12-18T05:04:11.114Z,100
2022-12-18T05:05:11.331Z,100
2022-12-18T05:06:11.148Z,100
2022-12-18T05:08:10.986Z,100
2022-12-18T05:09:11.175Z,100
2022-12-18T05:10:11.264Z,100
2022-12-18T05:11:11.379Z,100
2022-12-18T05:12:11.741Z,100
2022-12-18T05:13:11.349Z,100
2022-12-18T05:14:11.139Z,100
2022-12-18T05:15:11.779Z,100
2022-12-18T05:16:11.163Z,100
2022-12-18T05:17:12.010Z,100
2022-12-18T05:18:11.206Z,100
2022-12-18T05:19:11.497Z,100
2022-12-18T05:20:11.519Z,100
2022-12-18T05:21:12.568Z,100
2022-12-18T05:22:12.439Z,100
2022-12-18T05:23:11.651Z,100
2022-12-18T05:24:10.983Z,100
2022-12-18T05:25:11.109Z,100
2022-12-18T05:26:10.841Z,100
2022-12-18T05:27:10.993Z,100
2022-12-18T05:28:10.815Z,100
2022-12-18T05:29:10.148Z,100
2022-12-18T05:30:11.271Z,100
2022-12-18T05:31:11.793Z,100
2022-12-18T05:32:11.322Z,100
2022-12-18T05:33:12.618Z,100
2022-12-18T05:34:10.821Z,100
2022-12-18T05:35:11.922Z,100
2022-12-18T05:36:11.831Z,100
2022-12-18T05:37:11.537Z,100
2022-12-18T05:38:10.942Z,100
2022-12-18T05:39:10.866Z,100
2022-12-18T05:40:11.585Z,100
2022-12-18T05:41:11.303Z,100
2022-12-18T05:42:11.600Z,100
2022-12-18T05:43:12.035Z,100
2022-12-18T05:44:12.291Z,100
2022-12-18T05:45:12.531Z,100
2022-12-18T05:46:10.884Z,100
2022-12-18T05:47:11.397Z,100
2022-12-18T05:48:10.974Z,100
2022-12-18T05:49:11.310Z,100
2022-12-18T05:50:11.439Z,100
2022-12-18T05:51:10.197Z,100
2022-12-18T05:52:11.206Z,100
2022-12-18T05:53:11.294Z,100
2022-12-18T05:54:10.864Z,100
2022-12-18T05:55:11.244Z,100
2022-12-18T05:56:11.398Z,100
2022-12-18T05:57:11.907Z,100
2022-12-18T05:58:11.193Z,100
2022-12-18T05:59:11.282Z,100
2022-12-18T06:00:11.593Z,100
2022-12-18T06:01:11.141Z,100
2022-12-18T06:02:11.265Z,100
2022-12-18T06:03:12.328Z,100
2022-12-18T06:04:11.046Z,100
2022-12-18T06:05:10.806Z,100
2022-12-18T06:06:11.427Z,100
2022-12-18T06:07:10.822Z,100
2022-12-18T06:08:10.819Z,100
2022-12-18T06:09:11.251Z,100
2022-12-18T06:10:11.698Z,100
2022-12-18T06:11:11.082Z,100
2022-12-18T06:12:10.984Z,100
2022-12-18T06:13:10.268Z,100
2022-12-18T06:14:11.688Z,100
2022-12-18T06:16:11.223Z,100
2022-12-18T06:17:11.669Z,100
2022-12-18T06:18:11.921Z,100
2022-12-18T06:19:11.360Z,100
2022-12-18T06:20:12.036Z,100
2022-12-18T06:21:11.500Z,100
2022-12-18T06:22:10.955Z,100
2022-12-18T06:23:11.316Z,100
2022-12-18T06:24:10.806Z,100
2022-12-18T06:25:12.164Z,100
2022-12-18T06:26:10.994Z,100
2022-12-18T06:27:10.808Z,100
2022-12-18T06:28:11.967Z,100
2022-12-18T06:29:12.267Z,100
2022-12-18T06:30:11.284Z,100
2022-12-18T06:31:10.954Z,100
2022-12-18T06:32:11.947Z,100
2022-12-18T06:33:11.013Z,100
2022-12-18T06:34:12.155Z,100
2022-12-18T06:35:10.811Z,100
2022-12-18T06:36:11.156Z,100
2022-12-18T06:37:10.993Z,100
2022-12-18T06:38:11.239Z,100
2022-12-18T06:39:10.905Z,100
2022-12-18T06:40:10.953Z,100
2022-12-18T06:41:10.812Z,100
2022-12-18T06:42:10.924Z,100
2022-12-18T06:43:11.527Z,100
2022-12-18T06:44:11.785Z,100
2022-12-18T06:45:11.592Z,100
2022-12-18T06:46:10.420Z,100
2022-12-18T06:47:11.678Z,100
2022-12-18T06:48:11.327Z,100
2022-12-18T06:49:10.796Z,100
2022-12-18T06:50:11.208Z,100
2022-12-18T06:51:12.523Z,100
2022-12-18T06:52:10.939Z,100
2022-12-18T06:53:11.343Z,100
2022-12-18T06:54:10.864Z,100
2022-12-18T06:55:11.350Z,100
2022-12-18T06:56:11.428Z,100
2022-12-18T06:57:11.381Z,100
2022-12-18T06:58:11.867Z,100
2022-12-18T06:59:11.643Z,100
2022-12-18T07:00:11.957Z,100
2022-12-18T07:01:11.767Z,100
2022-12-18T07:02:11.818Z,100
2022-12-18T07:03:11.263Z,100
2022-12-18T07:04:11.422Z,100
2022-12-18T07:05:11.302Z,100
2022-12-18T07:06:11.593Z,100
2022-12-18T07:07:10.820Z,100
2022-12-18T07:08:10.136Z,100
2022-12-18T07:09:11.777Z,100
2022-12-18T07:10:10.845Z,100
2022-12-18T07:11:11.367Z,100
2022-12-18T07:12:11.631Z,100
2022-12-18T07:13:11.584Z,100
2022-12-18T07:14:11.206Z,100
2022-12-18T07:15:11.338Z,100
2022-12-18T07:16:16.231Z,100
2022-12-18T07:17:11.622Z,100
2022-12-18T07:18:10.900Z,100
2022-12-18T07:19:11.324Z,100
2022-12-18T07:20:11.707Z,100
2022-12-18T07:21:10.804Z,100
2022-12-18T07:23:10.956Z,100
2022-12-18T07:24:11.046Z,100
2022-12-18T07:25:11.002Z,100
2022-12-18T07:26:11.385Z,100
2022-12-18T07:27:11.606Z,100
2022-12-18T07:28:15.732Z,100
2022-12-18T07:29:11.448Z,100
2022-12-18T07:30:11.001Z,100
2022-12-18T07:31:11.258Z,100
2022-12-18T07:32:12.804Z,100
2022-12-18T07:33:11.842Z,100
2022-12-18T07:34:10.795Z,100
2022-12-18T07:35:10.797Z,100
2022-12-18T07:36:10.875Z,100
2022-12-18T07:37:10.804Z,100
2022-12-18T07:38:10.795Z,100
2022-12-18T07:39:10.930Z,100
2022-12-18T07:40:11.075Z,100
2022-12-18T07:41:11.694Z,100
2022-12-18T07:42:11.280Z,100
2022-12-18T07:43:11.027Z,100
2022-12-18T07:44:09.764Z,100
2022-12-18T07:45:11.573Z,100
2022-12-18T07:46:13.160Z,100
2022-12-18T07:47:12.318Z,100
2022-12-18T07:48:11.458Z,100
2022-12-18T07:49:11.231Z,100
2022-12-18T07:50:10.976Z,100
2022-12-18T07:51:10.894Z,100
2022-12-18T07:52:11.204Z,100
2022-12-18T07:53:11.725Z,100
2022-12-18T07:54:11.708Z,100
2022-12-18T07:55:11.034Z,100
2022-12-18T07:56:29.013Z,100
2022-12-18T07:57:33.748Z,100
2022-12-18T07:58:11.150Z,100
2022-12-18T07:59:11.299Z,100
2022-12-18T08:00:10.972Z,100
2022-12-18T08:01:11.989Z,100
2022-12-18T08:02:12.332Z,100
2022-12-18T08:03:11.693Z,100
2022-12-18T08:04:11.100Z,100
2022-12-18T08:05:11.107Z,100
2022-12-18T08:06:10.106Z,100
2022-12-18T08:07:11.571Z,100
2022-12-18T08:08:11.910Z,100
2022-12-18T08:09:11.786Z,100
2022-12-18T08:10:11.026Z,100
2022-12-18T08:11:11.578Z,100
2022-12-18T08:12:10.852Z,100
2022-12-18T08:13:11.190Z,100
2022-12-18T08:14:11.428Z,100
2022-12-18T08:15:10.945Z,100
2022-12-18T08:16:11.280Z,100
2022-12-18T08:17:11.385Z,100
2022-12-18T08:18:14.282Z,100
2022-12-18T08:19:11.083Z,100
2022-12-18T08:20:11.379Z,100
2022-12-18T08:21:10.784Z,100
2022-12-18T08:22:11.524Z,100
2022-12-18T08:23:11.209Z,100
2022-12-18T08:24:11.066Z,100
2022-12-18T08:25:11.492Z,100
2022-12-18T08:26:11.374Z,100
2022-12-18T08:27:28.847Z,100
2022-12-18T08:28:10.572Z,100
2022-12-18T08:30:11.043Z,100
2022-12-18T08:31:11.573Z,100
2022-12-18T08:32:12.395Z,100
2022-12-18T08:33:11.748Z,100
2022-12-18T08:34:11.644Z,100
2022-12-18T08:35:10.806Z,100
2022-12-18T08:36:11.166Z,100
2022-12-18T08:37:11.185Z,100
2022-12-18T08:38:11.586Z,100
2022-12-18T08:39:10.778Z,100
2022-12-18T08:40:11.620Z,100
2022-12-18T08:41:11.539Z,100
2022-12-18T08:42:11.725Z,100
2022-12-18T08:43:11.257Z,100
2022-12-18T08:44:10.919Z,100
2022-12-18T08:45:11.531Z,100
2022-12-18T08:46:10.812Z,100
2022-12-18T08:47:11.899Z,100
2022-12-18T08:48:11.538Z,100
2022-12-18T08:49:11.144Z,100
2022-12-18T08:50:10.785Z,100
2022-12-18T08:51:10.901Z,100
2022-12-18T08:52:10.867Z,100
2022-12-18T08:53:11.228Z,100
2022-12-18T08:54:11.254Z,100
2022-12-18T08:55:10.811Z,100
2022-12-18T08:56:10.785Z,100
2022-12-18T08:57:11.297Z,100
2022-12-18T08:58:11.533Z,100
2022-12-18T08:59:18.850Z,100
2022-12-18T09:00:10.800Z,100
2022-12-18T09:01:11.135Z,100
2022-12-18T09:02:12.027Z,100
2022-12-18T09:03:11.226Z,100
2022-12-18T09:04:10.926Z,100
2022-12-18T09:05:10.988Z,100
2022-12-18T09:06:10.760Z,100
2022-12-18T09:07:11.634Z,100
2022-12-18T09:08:10.790Z,100
2022-12-18T09:09:11.544Z,100
2022-12-18T09:10:10.543Z,100
2022-12-18T09:11:11.627Z,100
2022-12-18T09:12:12.106Z,100
2022-12-18T09:13:11.704Z,100
2022-12-18T09:14:10.795Z,100
2022-12-18T09:15:11.395Z,100
2022-12-18T09:16:11.436Z,100
2022-12-18T09:17:11.715Z,100
2022-12-18T09:18:11.206Z,100
2022-12-18T09:19:11.460Z,100
2022-12-18T09:20:10.848Z,100
2022-12-18T09:21:11.575Z,100
2022-12-18T09:22:10.787Z,100
2022-12-18T09:23:11.332Z,100
2022-12-18T09:24:11.185Z,100
2022-12-18T09:25:11.373Z,100
2022-12-18T09:26:11.406Z,100
2022-12-18T09:27:11.069Z,100
2022-12-18T09:28:13.188Z,100
2022-12-18T09:29:12.158Z,100
2022-12-18T09:30:11.459Z,100
2022-12-18T09:31:11.079Z,100
2022-12-18T09:32:10.843Z,100
2022-12-18T09:33:11.088Z,100
2022-12-18T09:34:11.353Z,100
2022-12-18T09:35:11.165Z,100
2022-12-18T09:36:11.687Z,100
2022-12-18T09:37:11.710Z,100
2022-12-18T09:38:11.186Z,100
2022-12-18T09:39:10.994Z,100
2022-12-18T09:40:10.774Z,100
2022-12-18T09:41:11.324Z,100
2022-12-18T09:42:11.528Z,100
2022-12-18T09:43:10.948Z,100
2022-12-18T09:44:11.516Z,100
2022-12-18T09:45:11.121Z,100
2022-12-18T09:46:11.157Z,100
2022-12-18T09:47:11.055Z,100
2022-12-18T09:48:12.020Z,100
2022-12-18T09:49:10.753Z,100
2022-12-18T09:50:17.072Z,100
2022-12-18T09:51:11.248Z,100
2022-12-18T09:52:11.169Z,100
2022-12-18T09:53:11.216Z,100
2022-12-18T09:54:11.894Z,100
2022-12-18T09:55:09.743Z,100
2022-12-18T09:56:10.857Z,100
2022-12-18T09:57:09.628Z,100
2022-12-18T09:58:11.810Z,100
2022-12-18T09:59:10.994Z,100
2022-12-18T10:00:10.987Z,100
2022-12-18T10:01:12.238Z,100
2022-12-18T10:02:11.617Z,100
2022-12-18T10:03:11.124Z,100
2022-12-18T10:04:11.271Z,100
2022-12-18T10:05:11.721Z,100
2022-12-18T10:06:11.187Z,100
2022-12-18T10:07:11.535Z,100
2022-12-18T10:08:12.038Z,100
2022-12-18T10:09:11.109Z,100
2022-12-18T10:10:10.780Z,100
2022-12-18T10:11:11.306Z,100
2022-12-18T10:12:11.014Z,100
2022-12-18T10:13:11.305Z,100
2022-12-18T10:14:11.218Z,100
2022-12-18T10:15:09.676Z,100
2022-12-18T10:16:11.551Z,100
2022-12-18T10:17:11.376Z,100
2022-12-18T10:18:11.411Z,100
2022-12-18T10:19:12.047Z,100
2022-12-18T10:20:11.389Z,100
2022-12-18T10:21:10.759Z,100
2022-12-18T10:22:09.728Z,100
2022-12-18T10:23:11.397Z,100
2022-12-18T10:24:11.601Z,100
2022-12-18T10:25:11.611Z,100
2022-12-18T10:26:11.480Z,100
2022-12-18T10:27:11.812Z,100
2022-12-18T10:28:10.782Z,100
2022-12-18T10:29:10.089Z,100
2022-12-18T10:30:11.380Z,100
2022-12-18T10:31:11.747Z,100
2022-12-18T10:32:10.750Z,99.9
2022-12-18T10:33:11.059Z,99.2
2022-12-18T10:34:11.220Z,98.6
2022-12-18T10:35:11.196Z,97.7
2022-12-18T10:36:11.244Z,97.4
2022-12-18T10:37:11.314Z,97.7
2022-12-18T10:38:11.124Z,98.6
2022-12-18T10:39:11.146Z,98.5
2022-12-18T10:40:12.501Z,98.9
2022-12-18T10:41:11.724Z,98.2
2022-12-18T10:43:10.816Z,98.6
2022-12-18T10:44:11.384Z,97.1
2022-12-18T10:45:11.255Z,97.2
2022-12-18T10:46:11.242Z,96.6
2022-12-18T10:47:12.085Z,97.2
2022-12-18T10:49:11.303Z,96.5
2022-12-18T10:50:10.960Z,97.3
2022-12-18T10:51:12.620Z,97.4
2022-12-18T10:52:11.045Z,98.1
2022-12-18T10:53:11.478Z,97.3
2022-12-18T10:54:11.024Z,96.9
2022-12-18T10:55:11.803Z,96.3
2022-12-18T10:56:11.210Z,96.1
2022-12-18T10:57:11.814Z,96.1
2022-12-18T10:58:11.981Z,95.6
2022-12-18T10:59:12.005Z,96.7
2022-12-18T11:00:11.515Z,96
2022-12-18T11:01:12.133Z,96
2022-12-18T11:02:11.706Z,96.3
2022-12-18T11:03:11.176Z,95.2
2022-12-18T11:04:11.376Z,96.2
2022-12-18T11:05:10.752Z,96.3
2022-12-18T11:06:10.770Z,95.5
2022-12-18T11:07:10.773Z,95
2022-12-18T11:08:10.749Z,95.4
2022-12-18T11:09:13.947Z,95
2022-12-18T11:10:11.530Z,94.3
2022-12-18T11:11:10.846Z,94.4
2022-12-18T11:12:10.740Z,94.4
2022-12-18T11:13:10.733Z,94.7
2022-12-18T11:14:11.270Z,93.9
2022-12-18T11:15:11.089Z,94.7
2022-12-18T11:16:11.754Z,95.6
2022-12-18T11:17:27.226Z,94.9
2022-12-18T11:18:11.530Z,93.1
2022-12-18T11:19:11.652Z,93
2022-12-18T11:20:11.221Z,92.5
2022-12-18T11:21:10.814Z,92.6
2022-12-18T11:22:11.161Z,91.7
2022-12-18T11:23:10.833Z,91.6
2022-12-18T11:24:11.907Z,90.9
2022-12-18T11:25:35.953Z,91.1
2022-12-18T11:26:12.041Z,90.9
2022-12-18T11:27:11.051Z,91.4
2022-12-18T11:28:10.996Z,91.6
2022-12-18T11:29:11.510Z,91.8
2022-12-18T11:30:11.426Z,91.3
2022-12-18T11:31:11.506Z,91.7
2022-12-18T11:32:12.233Z,91.4
2022-12-18T11:33:11.353Z,92.1
2022-12-18T11:34:34.183Z,92
2022-12-18T11:35:11.614Z,92.8
2022-12-18T11:36:11.896Z,93.4
2022-12-18T11:37:11.124Z,92.4
2022-12-18T11:38:11.580Z,91
2022-12-18T11:39:10.737Z,91.4
2022-12-18T11:40:11.138Z,91.5
2022-12-18T11:41:10.974Z,89.8
2022-12-18T11:42:11.191Z,89.2
2022-12-18T11:43:11.807Z,89.6
2022-12-18T11:44:11.292Z,89.1
2022-12-18T11:45:10.746Z,89.4
2022-12-18T11:46:16.119Z,89.7
2022-12-18T11:47:11.407Z,90.5
2022-12-18T11:48:11.735Z,90.7
2022-12-18T11:49:11.976Z,90.6
2022-12-18T11:50:10.083Z,90.3
2022-12-18T11:51:11.313Z,90.7
2022-12-18T11:52:10.833Z,90.7
2022-12-18T11:53:11.511Z,91
2022-12-18T11:54:10.933Z,90.3
2022-12-18T11:55:11.680Z,91.5
2022-12-18T11:56:11.292Z,91.9
2022-12-18T11:57:11.167Z,92.6
2022-12-18T11:58:10.940Z,93
2022-12-18T11:59:11.570Z,93.1
2022-12-18T12:00:10.733Z,93.5
2022-12-18T12:01:11.521Z,94.2
2022-12-18T12:02:12.058Z,94.5
2022-12-18T12:03:11.134Z,95.1
2022-12-18T12:04:11.391Z,95.1
2022-12-18T12:05:12.036Z,94.7
2022-12-18T12:06:11.869Z,94.8
2022-12-18T12:07:11.173Z,95.1
2022-12-18T12:08:11.073Z,96
2022-12-18T12:09:11.405Z,95.1
2022-12-18T12:10:11.361Z,94.8
2022-12-18T12:11:11.289Z,94.7
2022-12-18T12:12:11.266Z,95.2
2022-12-18T12:13:10.692Z,96.7
2022-12-18T12:14:11.387Z,97.8
2022-12-18T12:15:11.446Z,98.2
2022-12-18T12:16:11.569Z,98.6
2022-12-18T12:17:11.363Z,99.1
2022-12-18T12:18:11.806Z,99.4
2022-12-18T12:19:11.202Z,99.5
2022-12-18T12:20:11.439Z,100
2022-12-18T12:21:10.766Z,99.6
2022-12-18T12:22:10.730Z,99.8
2022-12-18T12:23:11.981Z,100
2022-12-18T12:24:11.610Z,100
2022-12-18T12:25:10.726Z,100
2022-12-18T12:26:10.894Z,100
2022-12-18T12:27:12.012Z,100
2022-12-18T12:28:11.621Z,99.7
2022-12-18T12:29:12.643Z,99.4
2022-12-18T12:30:11.330Z,99.6
2022-12-18T12:31:11.547Z,100
2022-12-18T12:32:11.845Z,100
2022-12-18T12:33:11.790Z,100
2022-12-18T12:34:11.469Z,100
2022-12-18T12:35:11.009Z,100
2022-12-18T12:36:11.613Z,100
2022-12-18T12:37:11.276Z,100
2022-12-18T12:38:11.108Z,100
2022-12-18T12:39:11.124Z,100
2022-12-18T12:40:40.973Z,100
2022-12-18T12:41:11.488Z,100
2022-12-18T12:42:11.148Z,100
2022-12-18T12:43:10.800Z,100
2022-12-18T12:44:11.194Z,100
2022-12-18T12:45:10.759Z,100
2022-12-18T12:46:11.260Z,100
2022-12-18T12:47:10.812Z,100
2022-12-18T12:48:11.379Z,100
2022-12-18T12:49:11.236Z,100
2022-12-18T12:50:11.311Z,100
2022-12-18T12:51:11.477Z,100
2022-12-18T12:52:12.365Z,100
2022-12-18T12:53:11.792Z,100
2022-12-18T12:54:11.031Z,100
2022-12-18T12:55:14.698Z,100
2022-12-18T12:56:12.571Z,100
2022-12-18T12:57:11.157Z,100
2022-12-18T12:58:09.645Z,100
2022-12-18T12:59:10.784Z,100
2022-12-18T13:00:13.309Z,100
2022-12-18T13:01:11.128Z,100
2022-12-18T13:02:10.888Z,100
2022-12-18T13:03:11.505Z,100
2022-12-18T13:04:11.341Z,100
2022-12-18T13:05:11.164Z,100
2022-12-18T13:06:11.109Z,100
2022-12-18T13:07:10.883Z,100
2022-12-18T13:08:11.008Z,100
2022-12-18T13:09:11.252Z,100
2022-12-18T13:10:11.503Z,100
2022-12-18T13:11:11.641Z,100
2022-12-18T13:12:11.460Z,100
2022-12-18T13:13:11.793Z,100
2022-12-18T13:14:11.201Z,100
2022-12-18T13:15:11.863Z,100
2022-12-18T13:16:11.165Z,100
2022-12-18T13:17:11.299Z,100
2022-12-18T13:18:10.891Z,100
2022-12-18T13:19:10.759Z,100
2022-12-18T13:20:10.200Z,100
2022-12-18T13:21:11.976Z,100
2022-12-18T13:22:10.840Z,100
2022-12-18T13:23:11.106Z,100
2022-12-18T13:24:11.234Z,100
2022-12-18T13:25:11.625Z,100
2022-12-18T13:26:10.723Z,100
2022-12-18T13:27:11.719Z,100
2022-12-18T13:28:10.999Z,100
2022-12-18T13:29:10.920Z,100
2022-12-18T13:30:11.007Z,100
2022-12-18T13:31:11.245Z,100
2022-12-18T13:32:12.919Z,100
2022-12-18T13:33:10.743Z,100
2022-12-18T13:34:25.733Z,100
2022-12-18T13:35:11.524Z,100
2022-12-18T13:36:10.956Z,100
2022-12-18T13:37:11.191Z,100
2022-12-18T13:38:11.545Z,100
2022-12-18T13:39:11.868Z,100
2022-12-18T13:40:10.706Z,100
2022-12-18T13:41:11.352Z,100
2022-12-18T13:42:11.575Z,100
2022-12-18T13:43:11.135Z,100
2022-12-18T13:44:10.745Z,100
2022-12-18T13:45:13.172Z,100
2022-12-18T13:46:11.076Z,100
2022-12-18T13:47:10.893Z,100
2022-12-18T13:48:11.337Z,100
2022-12-18T13:49:11.224Z,100
2022-12-18T13:50:10.813Z,100